Carrollton, Alabama
Current Conditions -  °F | °C
As of 9:53 AM on Friday 24 Oct 2014 (Local Time) from KTCL Reporting Station
Clear Clear  
Wind Chill: 62°   Ceiling: Unl
Heat Index: 62°   Visibility: 10mi
Dew Point: 49°   Wind: 5mph
Humidity: 62%   Direction: 10°N
Pressure: 30.13"   Gusts: NA
Location:  33.26°N, 88.1°W
Report Text: KTCL 241453Z 01004KT 10SM CLR 17/09 A3013 RMK AO2 SLP200 T01670094 51008
Loading
Personal Weather Stations






























Interactive Weather Map
Tropical Storm Tracking
New forecast layout! Learn more

10-Day Weather Forecast

Advertisements
Track Severe Weather on mobile